createdAt,value
2019-04-29T00:00:24.042Z,974.51
2019-04-29T00:01:24.092Z,974.47
2019-04-29T00:02:24.151Z,974.46
2019-04-29T00:03:24.185Z,974.45
2019-04-29T00:04:24.226Z,974.49
2019-04-29T00:05:24.266Z,974.49
2019-04-29T00:06:24.315Z,974.48
2019-04-29T00:07:24.381Z,974.48
2019-04-29T00:08:24.468Z,974.52
2019-04-29T00:09:24.440Z,974.53
2019-04-29T00:10:24.483Z,974.52
2019-04-29T00:11:24.530Z,974.53
2019-04-29T00:12:24.592Z,974.56
2019-04-29T00:13:24.628Z,974.55
2019-04-29T00:14:24.666Z,974.57
2019-04-29T00:15:24.710Z,974.57
2019-04-29T00:16:24.759Z,974.58
2019-04-29T00:17:24.832Z,974.58
2019-04-29T00:18:24.850Z,974.55
2019-04-29T00:19:24.895Z,974.56
2019-04-29T00:20:24.971Z,974.55
2019-04-29T00:21:24.984Z,974.59
2019-04-29T00:22:25.070Z,974.55
2019-04-29T00:23:25.069Z,974.59
2019-04-29T00:24:25.109Z,974.59
2019-04-29T00:25:25.154Z,974.56
2019-04-29T00:26:25.198Z,974.59
2019-04-29T00:27:25.264Z,974.59
2019-04-29T00:28:25.319Z,974.57
2019-04-29T00:29:25.335Z,974.59
2019-04-29T00:30:25.374Z,974.54
2019-04-29T00:31:25.507Z,974.51
2019-04-29T00:32:25.472Z,974.53
2019-04-29T00:33:25.532Z,974.50
2019-04-29T00:34:25.558Z,974.56
2019-04-29T00:35:25.600Z,974.56
2019-04-29T00:36:25.644Z,974.53
2019-04-29T00:37:25.693Z,974.51
2019-04-29T00:38:25.755Z,974.53
2019-04-29T00:39:25.776Z,974.48
2019-04-29T00:40:25.822Z,974.48
2019-04-29T00:41:25.881Z,974.48
2019-04-29T00:42:25.915Z,974.46
2019-04-29T00:43:25.973Z,974.46
2019-04-29T00:44:26.015Z,974.42
2019-04-29T00:45:26.125Z,974.45
2019-04-29T00:46:26.088Z,974.43
2019-04-29T00:47:26.139Z,974.39
2019-04-29T00:48:26.180Z,974.38
2019-04-29T00:49:26.238Z,974.41
2019-04-29T00:50:26.272Z,974.38
2019-04-29T00:51:26.311Z,974.33
2019-04-29T00:52:26.444Z,974.31
2019-04-29T00:53:26.415Z,974.33
2019-04-29T00:54:26.465Z,974.36
2019-04-29T00:55:26.489Z,974.36
2019-04-29T00:56:26.532Z,974.34
2019-04-29T00:57:26.575Z,974.34
2019-04-29T00:58:26.621Z,974.32
2019-04-29T00:59:26.772Z,974.33
2019-04-29T01:00:26.708Z,974.34
2019-04-29T01:01:26.751Z,974.35
2019-04-29T01:02:26.797Z,974.40
2019-04-29T01:03:26.844Z,974.42
2019-04-29T01:04:26.915Z,974.40
2019-04-29T01:05:26.980Z,974.42
2019-04-29T01:06:27.055Z,974.39
2019-04-29T01:07:27.033Z,974.43
2019-04-29T01:08:27.067Z,974.43
2019-04-29T01:09:27.134Z,974.43
2019-04-29T01:10:27.153Z,974.47
2019-04-29T01:11:27.204Z,974.47
2019-04-29T01:12:27.245Z,974.48
2019-04-29T01:13:27.287Z,974.48
2019-04-29T01:14:27.357Z,974.49
2019-04-29T01:15:27.373Z,974.51
2019-04-29T01:16:27.416Z,974.50
2019-04-29T01:17:27.464Z,974.52
2019-04-29T01:18:27.503Z,974.53
2019-04-29T01:19:27.568Z,974.50
2019-04-29T01:20:27.595Z,974.45
2019-04-29T01:21:27.643Z,974.48
2019-04-29T01:22:27.682Z,974.50
2019-04-29T01:23:27.742Z,974.48
2019-04-29T01:24:27.879Z,974.50
2019-04-29T01:25:27.819Z,974.47
2019-04-29T01:26:27.859Z,974.52
2019-04-29T01:27:27.909Z,974.50
2019-04-29T01:28:27.962Z,974.55
2019-04-29T01:29:28.013Z,974.52
2019-04-29T01:30:28.042Z,974.54
2019-04-29T01:31:28.119Z,974.53
2019-04-29T01:32:28.124Z,974.56
2019-04-29T01:33:28.170Z,974.58
2019-04-29T01:34:28.232Z,974.54
2019-04-29T01:35:28.288Z,974.49
2019-04-29T01:36:28.307Z,974.51
2019-04-29T01:37:28.353Z,974.46
2019-04-29T01:38:28.388Z,974.49
2019-04-29T01:39:28.454Z,974.54
2019-04-29T01:40:28.542Z,974.51
2019-04-29T01:41:28.523Z,974.49
2019-04-29T01:42:28.566Z,974.49
2019-04-29T01:43:28.620Z,974.52
2019-04-29T01:44:28.665Z,974.50
2019-04-29T01:45:28.731Z,974.48
2019-04-29T01:46:28.743Z,974.51
2019-04-29T01:47:28.850Z,974.51
2019-04-29T01:48:28.838Z,974.51
2019-04-29T01:49:28.878Z,974.50
2019-04-29T01:50:28.941Z,974.47
2019-04-29T01:51:28.965Z,974.49
2019-04-29T01:52:29.010Z,974.45
2019-04-29T01:53:29.061Z,974.46
2019-04-29T01:54:29.105Z,974.45
2019-04-29T01:55:29.165Z,974.43
2019-04-29T01:56:29.191Z,974.46
2019-04-29T01:57:29.229Z,974.42
2019-04-29T01:58:29.279Z,974.42
2019-04-29T01:59:29.321Z,974.37
2019-04-29T02:00:29.382Z,974.39
2019-04-29T02:01:29.422Z,974.38
2019-04-29T02:02:29.478Z,974.36
2019-04-29T02:03:29.494Z,974.38
2019-04-29T02:04:29.545Z,974.37
2019-04-29T02:05:29.599Z,974.36
2019-04-29T02:06:29.630Z,974.39
2019-04-29T02:07:29.701Z,974.33
2019-04-29T02:08:29.749Z,974.37
2019-04-29T02:09:29.761Z,974.39
2019-04-29T02:10:29.804Z,974.40
2019-04-29T02:11:29.852Z,974.41
2019-04-29T02:12:29.917Z,974.42
2019-04-29T02:13:29.936Z,974.42
2019-04-29T02:14:29.988Z,974.44
2019-04-29T02:15:30.066Z,974.46
2019-04-29T02:16:30.091Z,974.44
2019-04-29T02:17:30.114Z,974.43
2019-04-29T02:18:30.158Z,974.47
2019-04-29T02:19:30.200Z,974.47
2019-04-29T02:20:30.255Z,974.46
2019-04-29T02:21:30.314Z,974.44
2019-04-29T02:22:30.370Z,974.42
2019-04-29T02:23:30.380Z,974.42
2019-04-29T02:24:30.423Z,974.43
2019-04-29T02:25:30.463Z,974.41
2019-04-29T02:26:30.538Z,974.37
2019-04-29T02:27:30.573Z,974.35
2019-04-29T02:28:30.598Z,974.35
2019-04-29T02:29:30.671Z,974.33
2019-04-29T02:30:30.739Z,974.34
2019-04-29T02:31:30.746Z,974.32
2019-04-29T02:32:30.786Z,974.31
2019-04-29T02:33:30.830Z,974.34
2019-04-29T02:34:30.859Z,974.31
2019-04-29T02:35:30.899Z,974.30
2019-04-29T02:36:30.945Z,974.31
2019-04-29T02:37:31.025Z,974.34
2019-04-29T02:38:31.099Z,974.38
2019-04-29T02:39:31.089Z,974.39
2019-04-29T02:40:31.123Z,974.37
2019-04-29T02:41:31.171Z,974.38
2019-04-29T02:42:31.230Z,974.38
2019-04-29T02:43:31.251Z,974.38
2019-04-29T02:44:31.299Z,974.37
2019-04-29T02:45:31.440Z,974.39
2019-04-29T02:46:31.409Z,974.36
2019-04-29T02:47:31.449Z,974.40
2019-04-29T02:48:34.472Z,974.37
2019-04-29T02:49:31.513Z,974.37
2019-04-29T02:50:31.561Z,974.38
2019-04-29T02:51:31.621Z,974.32
2019-04-29T02:52:31.718Z,974.36
2019-04-29T02:53:31.694Z,974.35
2019-04-29T02:54:31.732Z,974.35
2019-04-29T02:55:31.794Z,974.39
2019-04-29T02:56:31.829Z,974.42
2019-04-29T02:57:31.886Z,974.37
2019-04-29T02:58:31.908Z,974.38
2019-04-29T02:59:31.976Z,974.39
2019-04-29T03:00:32.003Z,974.38
2019-04-29T03:01:32.045Z,974.39
2019-04-29T03:02:32.103Z,974.40
2019-04-29T03:03:32.136Z,974.36
2019-04-29T03:04:32.178Z,974.43
2019-04-29T03:05:32.214Z,974.43
2019-04-29T03:06:32.323Z,974.43
2019-04-29T03:07:32.329Z,974.40
2019-04-29T03:08:32.351Z,974.38
2019-04-29T03:09:32.389Z,974.34
2019-04-29T03:10:32.435Z,974.34
2019-04-29T03:11:32.486Z,974.37
2019-04-29T03:12:32.571Z,974.37
2019-04-29T03:13:32.622Z,974.35
2019-04-29T03:14:32.607Z,974.34
2019-04-29T03:15:32.672Z,974.35
2019-04-29T03:16:32.698Z,974.34
2019-04-29T03:17:32.766Z,974.34
2019-04-29T03:18:32.804Z,974.29
2019-04-29T03:19:32.828Z,974.30
2019-04-29T03:20:32.922Z,974.32
2019-04-29T03:21:32.923Z,974.28
2019-04-29T03:22:32.984Z,974.34
2019-04-29T03:23:33.034Z,974.37
2019-04-29T03:24:33.050Z,974.30
2019-04-29T03:25:33.091Z,974.31
2019-04-29T03:26:33.140Z,974.30
2019-04-29T03:27:33.179Z,974.29
2019-04-29T03:28:33.242Z,974.26
2019-04-29T03:29:33.358Z,974.31
2019-04-29T03:30:33.311Z,974.30
2019-04-29T03:31:39.182Z,974.27
2019-04-29T03:32:33.415Z,974.27
2019-04-29T03:33:33.476Z,974.28
2019-04-29T03:34:33.491Z,974.30
2019-04-29T03:35:33.528Z,974.31
2019-04-29T03:36:33.605Z,974.34
2019-04-29T03:37:33.623Z,974.33
2019-04-29T03:38:33.684Z,974.36
2019-04-29T03:39:33.704Z,974.33
2019-04-29T03:40:33.752Z,974.37
2019-04-29T03:41:33.791Z,974.35
2019-04-29T03:42:33.836Z,974.39
2019-04-29T03:43:34.009Z,974.34
2019-04-29T03:44:33.921Z,974.35
2019-04-29T03:45:33.974Z,974.32
2019-04-29T03:46:34.018Z,974.34
2019-04-29T03:47:34.058Z,974.34
2019-04-29T03:48:34.117Z,974.31
2019-04-29T03:49:34.143Z,974.29
2019-04-29T03:50:34.239Z,974.30
2019-04-29T03:51:34.231Z,974.30
2019-04-29T03:52:34.280Z,974.32
2019-04-29T03:53:34.349Z,974.40
2019-04-29T03:54:34.370Z,974.41
2019-04-29T03:55:40.107Z,974.37
2019-04-29T03:56:34.449Z,974.40
2019-04-29T03:57:34.522Z,974.33
2019-04-29T03:58:34.557Z,974.37
2019-04-29T03:59:34.582Z,974.41
2019-04-29T04:00:34.627Z,974.41
2019-04-29T04:01:34.665Z,974.40
2019-04-29T04:02:34.711Z,974.45
2019-04-29T04:03:34.775Z,974.41
2019-04-29T04:04:34.874Z,974.39
2019-04-29T04:05:34.850Z,974.39
2019-04-29T04:06:34.890Z,974.41
2019-04-29T04:07:35.000Z,974.44
2019-04-29T04:08:34.974Z,974.41
2019-04-29T04:09:35.033Z,974.41
2019-04-29T04:10:35.073Z,974.39
2019-04-29T04:11:35.104Z,974.42
2019-04-29T04:12:35.146Z,974.41
2019-04-29T04:13:35.197Z,974.38
2019-04-29T04:14:35.304Z,974.36
2019-04-29T04:15:35.298Z,974.38
2019-04-29T04:16:35.326Z,974.39
2019-04-29T04:17:35.366Z,974.36
2019-04-29T04:18:35.480Z,974.38
2019-04-29T04:19:35.474Z,974.39
2019-04-29T04:20:35.497Z,974.38
2019-04-29T04:21:35.542Z,974.42
2019-04-29T04:22:35.591Z,974.46
2019-04-29T04:23:35.627Z,974.48
2019-04-29T04:24:35.703Z,974.48
2019-04-29T04:25:35.717Z,974.49
2019-04-29T04:26:35.758Z,974.49
2019-04-29T04:27:35.925Z,974.51
2019-04-29T04:28:35.857Z,974.50
2019-04-29T04:29:35.920Z,974.51
2019-04-29T04:30:35.951Z,974.54
2019-04-29T04:31:35.975Z,974.51
2019-04-29T04:32:36.025Z,974.54
2019-04-29T04:33:36.065Z,974.51
2019-04-29T04:34:36.115Z,974.52
2019-04-29T04:35:36.171Z,974.50
2019-04-29T04:36:36.195Z,974.54
2019-04-29T04:37:36.245Z,974.56
2019-04-29T04:38:36.282Z,974.57
2019-04-29T04:39:36.336Z,974.56
2019-04-29T04:40:36.391Z,974.54
2019-04-29T04:41:36.412Z,974.55
2019-04-29T04:42:36.462Z,974.55
2019-04-29T04:43:36.502Z,974.51
2019-04-29T04:44:36.554Z,974.52
2019-04-29T04:45:36.890Z,974.50
2019-04-29T04:46:36.628Z,974.55
2019-04-29T04:47:36.670Z,974.56
2019-04-29T04:48:36.715Z,974.52
2019-04-29T04:49:36.757Z,974.59
2019-04-29T04:50:36.832Z,974.58
2019-04-29T04:51:36.848Z,974.66
2019-04-29T04:52:36.888Z,974.67
2019-04-29T04:53:36.929Z,974.67
2019-04-29T04:54:36.974Z,974.75
2019-04-29T04:55:37.032Z,974.74
2019-04-29T04:56:37.060Z,974.72
2019-04-29T04:57:37.105Z,974.72
2019-04-29T04:58:37.149Z,974.74
2019-04-29T04:59:37.201Z,974.74
2019-04-29T05:00:37.264Z,974.76
2019-04-29T05:01:37.280Z,974.76
2019-04-29T05:02:37.321Z,974.78
2019-04-29T05:03:37.364Z,974.80
2019-04-29T05:04:37.410Z,974.77
2019-04-29T05:05:37.476Z,974.75
2019-04-29T05:06:37.498Z,974.79
2019-04-29T05:07:37.548Z,974.78
2019-04-29T05:08:37.593Z,974.83
2019-04-29T05:09:37.634Z,974.82
2019-04-29T05:10:37.689Z,974.84
2019-04-29T05:11:37.710Z,974.85
2019-04-29T05:12:37.756Z,974.85
2019-04-29T05:13:37.878Z,974.85
2019-04-29T05:14:37.849Z,974.87
2019-04-29T05:15:37.911Z,974.87
2019-04-29T05:16:37.931Z,974.89
2019-04-29T05:17:37.972Z,974.92
2019-04-29T05:18:38.014Z,974.92
2019-04-29T05:19:38.060Z,974.91
2019-04-29T05:20:38.164Z,974.91
2019-04-29T05:21:38.167Z,974.93
2019-04-29T05:22:38.202Z,974.92
2019-04-29T05:23:41.388Z,974.95
2019-04-29T05:24:38.275Z,974.97
2019-04-29T05:25:38.324Z,974.96
2019-04-29T05:26:38.382Z,974.99
2019-04-29T05:27:38.437Z,974.98
2019-04-29T05:28:38.450Z,975.03
2019-04-29T05:29:38.489Z,975.02
2019-04-29T05:30:38.533Z,975.03
2019-04-29T05:31:38.611Z,975.02
2019-04-29T05:32:38.625Z,975.05
2019-04-29T05:33:38.672Z,975.03
2019-04-29T05:34:41.847Z,975.03
2019-04-29T05:35:40.331Z,975.05
2019-04-29T05:36:39.395Z,975.11
2019-04-29T05:37:38.876Z,975.10
2019-04-29T05:38:38.944Z,975.13
2019-04-29T05:39:38.974Z,975.09
2019-04-29T05:40:38.980Z,975.06
2019-04-29T05:41:39.079Z,975.11
2019-04-29T05:42:39.143Z,975.10
2019-04-29T05:43:39.119Z,975.12
2019-04-29T05:44:39.177Z,975.14
2019-04-29T05:45:41.495Z,975.11
2019-04-29T05:46:39.358Z,975.15
2019-04-29T05:47:39.370Z,975.19
2019-04-29T05:48:39.330Z,975.21
2019-04-29T05:49:41.674Z,975.22
2019-04-29T05:50:39.480Z,975.21
2019-04-29T05:51:39.529Z,975.21
2019-04-29T05:52:41.086Z,975.20
2019-04-29T05:53:39.544Z,975.23
2019-04-29T05:54:39.590Z,975.25
2019-04-29T05:55:39.624Z,975.25
2019-04-29T05:56:39.790Z,975.26
2019-04-29T05:57:39.720Z,975.28
2019-04-29T05:58:39.755Z,975.32
2019-04-29T05:59:43.322Z,975.30
2019-04-29T06:00:39.844Z,975.33
2019-04-29T06:01:42.830Z,975.32
2019-04-29T06:02:39.946Z,975.33
2019-04-29T06:03:40.014Z,975.37
2019-04-29T06:04:40.025Z,975.32
2019-04-29T06:05:40.066Z,975.36
2019-04-29T06:06:40.110Z,975.34
2019-04-29T06:07:40.175Z,975.37
2019-04-29T06:08:40.638Z,975.38
2019-04-29T06:09:40.240Z,975.38
2019-04-29T06:10:42.008Z,975.40
2019-04-29T06:11:40.335Z,975.41
2019-04-29T06:12:40.411Z,975.40
2019-04-29T06:13:40.436Z,975.44
2019-04-29T06:14:40.463Z,975.44
2019-04-29T06:15:40.511Z,975.41
2019-04-29T06:16:40.555Z,975.49
2019-04-29T06:17:44.715Z,975.42
2019-04-29T06:18:41.032Z,975.48
2019-04-29T06:19:41.060Z,975.49
2019-04-29T06:20:40.740Z,975.48
2019-04-29T06:21:40.771Z,975.48
2019-04-29T06:22:41.910Z,975.49
2019-04-29T06:23:40.883Z,975.48
2019-04-29T06:24:41.383Z,975.51
2019-04-29T06:25:40.959Z,975.50
2019-04-29T06:26:43.485Z,975.52
2019-04-29T06:27:41.045Z,975.51
2019-04-29T06:28:41.107Z,975.50
2019-04-29T06:29:41.141Z,975.55
2019-04-29T06:30:45.228Z,975.56
2019-04-29T06:31:41.218Z,975.58
2019-04-29T06:32:41.287Z,975.58
2019-04-29T06:33:41.319Z,975.59
2019-04-29T06:34:41.765Z,975.57
2019-04-29T06:35:43.431Z,975.61
2019-04-29T06:36:41.433Z,975.58
2019-04-29T06:37:41.483Z,975.57
2019-04-29T06:38:41.559Z,975.54
2019-04-29T06:39:41.569Z,975.54
2019-04-29T06:40:41.616Z,975.58
2019-04-29T06:41:45.409Z,975.55
2019-04-29T06:42:41.705Z,975.54
2019-04-29T06:43:41.772Z,975.58
2019-04-29T06:44:44.456Z,975.57
2019-04-29T06:45:41.837Z,975.54
2019-04-29T06:46:41.886Z,975.53
2019-04-29T06:47:41.925Z,975.53
2019-04-29T06:48:41.989Z,975.53
2019-04-29T06:49:42.009Z,975.54
2019-04-29T06:50:42.062Z,975.52
2019-04-29T06:51:42.102Z,975.57
2019-04-29T06:52:42.146Z,975.53
2019-04-29T06:53:42.226Z,975.57
2019-04-29T06:54:42.245Z,975.58
2019-04-29T06:55:42.294Z,975.57
2019-04-29T06:56:42.333Z,975.60
2019-04-29T06:57:42.373Z,975.62
2019-04-29T06:58:42.439Z,975.60
2019-04-29T06:59:42.915Z,975.62
2019-04-29T07:00:42.513Z,975.62
2019-04-29T07:01:42.547Z,975.65
2019-04-29T07:02:45.511Z,975.66
2019-04-29T07:03:42.662Z,975.67
2019-04-29T07:04:42.705Z,975.64
2019-04-29T07:05:42.729Z,975.66
2019-04-29T07:06:56.438Z,975.64
2019-04-29T07:07:42.817Z,975.67
2019-04-29T07:08:42.860Z,975.66
2019-04-29T07:09:42.922Z,975.62
2019-04-29T07:10:42.949Z,975.66
2019-04-29T07:11:42.994Z,975.63
2019-04-29T07:12:47.491Z,975.64
2019-04-29T07:13:43.088Z,975.65
2019-04-29T07:14:43.150Z,975.65
2019-04-29T07:15:43.586Z,975.63
2019-04-29T07:16:43.215Z,975.68
2019-04-29T07:17:43.266Z,975.68
2019-04-29T07:18:48.320Z,975.67
2019-04-29T07:19:43.375Z,975.67
2019-04-29T07:20:43.455Z,975.70
2019-04-29T07:21:47.201Z,975.73
2019-04-29T07:22:43.497Z,975.69
2019-04-29T07:23:43.536Z,975.70
2019-04-29T07:24:43.631Z,975.74
2019-04-29T07:25:43.628Z,975.69
2019-04-29T07:26:43.666Z,975.69
2019-04-29T07:27:44.616Z,975.68
2019-04-29T07:28:43.769Z,975.69
2019-04-29T07:29:43.831Z,975.67
2019-04-29T07:31:00.360Z,975.70
2019-04-29T07:31:43.890Z,975.70
2019-04-29T07:32:46.963Z,975.68
2019-04-29T07:33:43.981Z,975.72
2019-04-29T07:34:44.062Z,975.72
2019-04-29T07:35:47.925Z,975.70
2019-04-29T07:36:44.123Z,975.71
2019-04-29T07:37:44.166Z,975.72
2019-04-29T07:38:46.438Z,975.73
2019-04-29T07:39:44.277Z,975.73
2019-04-29T07:40:44.666Z,975.76
2019-04-29T07:41:44.341Z,975.75
2019-04-29T07:42:44.393Z,975.73
2019-04-29T07:43:44.433Z,975.69
2019-04-29T07:44:44.582Z,975.72
2019-04-29T07:45:44.734Z,975.71
2019-04-29T07:46:56.424Z,975.74
2019-04-29T07:47:55.792Z,975.72
2019-04-29T07:48:44.665Z,975.70
2019-04-29T07:49:47.307Z,975.68
2019-04-29T07:50:44.784Z,975.72
2019-04-29T07:51:44.802Z,975.73
2019-04-29T07:52:45.632Z,975.72
2019-04-29T07:53:45.775Z,975.73
2019-04-29T07:54:48.213Z,975.77
2019-04-29T07:55:44.994Z,975.76
2019-04-29T07:56:45.027Z,975.81
2019-04-29T07:57:47.741Z,975.80
2019-04-29T07:58:45.449Z,975.87
2019-04-29T07:59:45.174Z,975.81
2019-04-29T08:00:48.833Z,975.84
2019-04-29T08:01:45.246Z,975.80
2019-04-29T08:02:45.298Z,975.84
2019-04-29T08:03:45.355Z,975.83
2019-04-29T08:04:45.459Z,975.88
2019-04-29T08:05:45.884Z,975.87
2019-04-29T08:06:45.473Z,975.86
2019-04-29T08:07:45.532Z,975.85
2019-04-29T08:08:54.773Z,975.91
2019-04-29T08:09:45.640Z,975.90
2019-04-29T08:10:54.031Z,975.92
2019-04-29T08:11:45.724Z,975.93
2019-04-29T08:12:45.749Z,975.91
2019-04-29T08:13:45.799Z,975.94
2019-04-29T08:14:45.842Z,975.94
2019-04-29T08:15:45.914Z,975.94
2019-04-29T08:16:45.931Z,975.90
2019-04-29T08:17:46.040Z,975.90
2019-04-29T08:18:49.450Z,975.88
2019-04-29T08:19:46.077Z,975.95
2019-04-29T08:20:46.140Z,975.95
2019-04-29T08:21:49.824Z,975.90
2019-04-29T08:22:46.213Z,975.91
2019-04-29T08:23:46.251Z,975.90
2019-04-29T08:24:50.485Z,975.88
2019-04-29T08:25:46.361Z,975.89
2019-04-29T08:26:47.667Z,975.91
2019-04-29T08:27:46.445Z,975.88
2019-04-29T08:28:46.482Z,975.90
2019-04-29T08:29:46.535Z,975.93
2019-04-29T08:30:47.360Z,975.90
2019-04-29T08:31:46.638Z,975.90
2019-04-29T08:32:46.677Z,975.91
2019-04-29T08:33:47.096Z,975.90
2019-04-29T08:34:46.785Z,975.92
2019-04-29T08:35:47.010Z,975.87
2019-04-29T08:36:46.875Z,975.86
2019-04-29T08:37:46.904Z,975.89
2019-04-29T08:38:46.944Z,975.92
2019-04-29T08:40:03.431Z,975.88
2019-04-29T08:40:50.069Z,975.87
2019-04-29T08:41:47.110Z,975.89
2019-04-29T08:42:47.134Z,975.89
2019-04-29T08:43:47.179Z,975.90
2019-04-29T08:44:47.242Z,975.90
2019-04-29T08:45:47.271Z,975.89
2019-04-29T08:46:52.001Z,975.90
2019-04-29T08:47:47.391Z,975.92
2019-04-29T08:48:47.425Z,975.92
2019-04-29T08:49:47.464Z,975.94
2019-04-29T08:50:47.527Z,975.95
2019-04-29T08:51:47.588Z,975.98
2019-04-29T08:52:47.618Z,975.94
2019-04-29T08:53:47.655Z,975.95
2019-04-29T08:54:50.788Z,975.96
2019-04-29T08:55:47.751Z,975.93
2019-04-29T08:57:02.457Z,975.93
2019-04-29T08:57:47.845Z,975.94
2019-04-29T08:58:49.314Z,975.93
2019-04-29T08:59:47.949Z,975.95
2019-04-29T09:00:51.329Z,975.94
2019-04-29T09:01:48.064Z,975.92
2019-04-29T09:02:49.312Z,975.91
2019-04-29T09:03:48.146Z,975.82
2019-04-29T09:04:53.848Z,975.90
2019-04-29T09:06:04.276Z,975.88
2019-04-29T09:06:48.299Z,975.88
2019-04-29T09:07:48.322Z,975.86
2019-04-29T09:08:55.226Z,975.83
2019-04-29T09:09:48.609Z,975.81
2019-04-29T09:10:48.465Z,975.84
2019-04-29T09:11:49.439Z,975.87
2019-04-29T09:12:48.564Z,975.87
2019-04-29T09:13:48.611Z,975.79
2019-04-29T09:14:48.738Z,975.83
2019-04-29T09:15:48.710Z,975.79
2019-04-29T09:16:48.772Z,975.81
2019-04-29T09:17:48.831Z,975.83
2019-04-29T09:18:48.867Z,975.83
2019-04-29T09:19:48.895Z,975.82
2019-04-29T09:20:48.948Z,975.80
2019-04-29T09:21:49.003Z,975.79
2019-04-29T09:22:49.081Z,975.81
2019-04-29T09:23:49.105Z,975.77
2019-04-29T09:24:49.638Z,975.81
2019-04-29T09:26:02.069Z,975.79
2019-04-29T09:26:49.235Z,975.79
2019-04-29T09:27:49.302Z,975.82
2019-04-29T09:28:49.992Z,975.74
2019-04-29T09:29:49.377Z,975.77
2019-04-29T09:30:49.424Z,975.78
2019-04-29T09:31:49.470Z,975.80
2019-04-29T09:32:49.543Z,975.79
2019-04-29T09:33:50.994Z,975.76
2019-04-29T09:34:49.616Z,975.74
2019-04-29T09:35:49.661Z,975.72
2019-04-29T09:36:49.810Z,975.77
2019-04-29T09:37:53.730Z,975.75
2019-04-29T09:38:49.808Z,975.71
2019-04-29T09:39:49.864Z,975.75
2019-04-29T09:40:49.900Z,975.75
2019-04-29T09:41:49.965Z,975.79
2019-04-29T09:42:51.712Z,975.78
2019-04-29T09:43:50.045Z,975.76
2019-04-29T09:44:50.094Z,975.76
2019-04-29T09:45:53.930Z,975.77
2019-04-29T09:46:50.190Z,975.78
2019-04-29T09:47:50.251Z,975.77
2019-04-29T09:48:50.306Z,975.76
2019-04-29T09:49:50.341Z,975.70
2019-04-29T09:50:50.386Z,975.69
2019-04-29T09:51:50.436Z,975.68
2019-04-29T09:52:50.487Z,975.74
2019-04-29T09:53:50.638Z,975.71
2019-04-29T09:54:50.572Z,975.73
2019-04-29T09:55:50.615Z,975.68
2019-04-29T09:56:50.662Z,975.69
2019-04-29T09:57:50.717Z,975.72
2019-04-29T09:58:50.775Z,975.69
2019-04-29T09:59:50.808Z,975.74
2019-04-29T10:00:50.861Z,975.69
2019-04-29T10:01:55.135Z,975.69
2019-04-29T10:02:50.958Z,975.70
2019-04-29T10:03:51.013Z,975.67
2019-04-29T10:04:56.816Z,975.65
2019-04-29T10:05:51.102Z,975.67
2019-04-29T10:06:51.151Z,975.67
2019-04-29T10:07:51.181Z,975.62
2019-04-29T10:08:51.259Z,975.64
2019-04-29T10:09:57.552Z,975.66
2019-04-29T10:10:51.328Z,975.65
2019-04-29T10:11:51.382Z,975.62
2019-04-29T10:12:53.794Z,975.62
2019-04-29T10:13:51.484Z,975.59
2019-04-29T10:14:51.516Z,975.62
2019-04-29T10:15:51.563Z,975.62
2019-04-29T10:16:51.661Z,975.64
2019-04-29T10:17:55.490Z,975.61
2019-04-29T10:18:51.755Z,975.64
2019-04-29T10:19:51.776Z,975.60
2019-04-29T10:20:51.898Z,975.63
2019-04-29T10:21:51.853Z,975.61
2019-04-29T10:22:53.750Z,975.61
2019-04-29T10:23:51.942Z,975.62
2019-04-29T10:24:52.014Z,975.59
2019-04-29T10:25:52.050Z,975.58
2019-04-29T10:26:52.104Z,975.55
2019-04-29T10:27:52.229Z,975.51
2019-04-29T10:28:52.181Z,975.54
2019-04-29T10:29:55.284Z,975.53
2019-04-29T10:30:52.274Z,975.47
2019-04-29T10:31:52.327Z,975.43
2019-04-29T10:32:52.368Z,975.43
2019-04-29T10:33:54.924Z,975.41
2019-04-29T10:34:52.491Z,975.43
2019-04-29T10:35:52.510Z,975.45
2019-04-29T10:36:53.623Z,975.45
2019-04-29T10:37:52.609Z,975.44
2019-04-29T10:38:52.659Z,975.42
2019-04-29T10:39:52.723Z,975.42
2019-04-29T10:40:56.417Z,975.40
2019-04-29T10:41:52.854Z,975.42
2019-04-29T10:42:52.858Z,975.38
2019-04-29T10:43:53.772Z,975.42
2019-04-29T10:44:52.973Z,975.39
2019-04-29T10:45:52.984Z,975.40
2019-04-29T10:46:53.036Z,975.39
2019-04-29T10:47:53.088Z,975.38
2019-04-29T10:48:53.139Z,975.36
2019-04-29T10:49:53.195Z,975.36
2019-04-29T10:50:54.008Z,975.38
2019-04-29T10:51:53.269Z,975.35
2019-04-29T10:52:53.319Z,975.35
2019-04-29T10:53:53.366Z,975.33
2019-04-29T10:54:55.392Z,975.35
2019-04-29T10:55:53.467Z,975.33
2019-04-29T10:56:53.515Z,975.31
2019-04-29T10:57:53.564Z,975.32
2019-04-29T10:58:53.611Z,975.28
2019-04-29T10:59:53.682Z,975.28
2019-04-29T11:00:57.413Z,975.27
2019-04-29T11:02:01.042Z,975.27
2019-04-29T11:02:53.799Z,975.29
2019-04-29T11:03:55.929Z,975.29
2019-04-29T11:04:53.904Z,975.30
2019-04-29T11:06:00.262Z,975.31
2019-04-29T11:06:53.982Z,975.31
2019-04-29T11:07:54.029Z,975.27
2019-04-29T11:08:54.081Z,975.27
2019-04-29T11:09:54.151Z,975.26
2019-04-29T11:11:02.101Z,975.25
2019-04-29T11:11:54.221Z,975.23
2019-04-29T11:12:54.282Z,975.26
2019-04-29T11:13:57.666Z,975.27
2019-04-29T11:14:54.399Z,975.26
2019-04-29T11:15:54.435Z,975.21
2019-04-29T11:16:54.457Z,975.21
2019-04-29T11:17:59.377Z,975.22
2019-04-29T11:18:55.029Z,975.23
2019-04-29T11:19:54.636Z,975.16
2019-04-29T11:20:55.527Z,975.20
2019-04-29T11:21:54.710Z,975.20
2019-04-29T11:22:54.797Z,975.19
2019-04-29T11:23:56.392Z,975.20
2019-04-29T11:24:54.843Z,975.22
2019-04-29T11:25:54.911Z,975.20
2019-04-29T11:26:54.932Z,975.20
2019-04-29T11:27:56.239Z,975.20
2019-04-29T11:28:55.033Z,975.18
2019-04-29T11:29:58.476Z,975.24
2019-04-29T11:30:55.138Z,975.19
2019-04-29T11:31:55.893Z,975.18
2019-04-29T11:32:55.219Z,975.24
2019-04-29T11:33:55.267Z,975.27
2019-04-29T11:34:55.309Z,975.21
2019-04-29T11:35:59.138Z,975.21
2019-04-29T11:36:55.427Z,975.23
2019-04-29T11:37:59.658Z,975.22
2019-04-29T11:38:55.504Z,975.21
2019-04-29T11:39:57.148Z,975.20
2019-04-29T11:40:55.608Z,975.16
2019-04-29T11:41:59.576Z,975.16
2019-04-29T11:42:55.686Z,975.16
2019-04-29T11:43:55.733Z,975.15
2019-04-29T11:44:57.207Z,975.17
2019-04-29T11:45:55.837Z,975.16
2019-04-29T11:46:55.897Z,975.18
2019-04-29T11:47:55.910Z,975.14
2019-04-29T11:48:55.965Z,975.16
2019-04-29T11:49:56.003Z,975.14
2019-04-29T11:50:56.055Z,975.17
2019-04-29T11:52:09.325Z,975.12
2019-04-29T11:52:56.144Z,975.13
2019-04-29T11:53:56.193Z,975.15
2019-04-29T11:54:56.233Z,975.17
2019-04-29T11:55:56.938Z,975.20
2019-04-29T11:56:56.354Z,975.18
2019-04-29T11:57:56.374Z,975.18
2019-04-29T11:58:56.456Z,975.18
2019-04-29T11:59:56.467Z,975.19
2019-04-29T12:00:56.525Z,975.19
2019-04-29T12:01:59.587Z,975.17
2019-04-29T12:02:56.613Z,975.15
2019-04-29T12:03:58.235Z,975.15
2019-04-29T12:04:56.700Z,975.10
2019-04-29T12:05:56.751Z,975.04
2019-04-29T12:06:58.160Z,975.04
2019-04-29T12:07:56.845Z,975.03
2019-04-29T12:08:56.880Z,975.02
2019-04-29T12:09:56.933Z,974.99
2019-04-29T12:11:06.457Z,975.02
2019-04-29T12:11:57.046Z,974.97
2019-04-29T12:12:57.068Z,974.97
2019-04-29T12:13:58.930Z,974.91
2019-04-29T12:14:57.165Z,974.89
2019-04-29T12:15:57.208Z,974.89
2019-04-29T12:16:57.295Z,974.94
2019-04-29T12:17:57.302Z,974.94
2019-04-29T12:18:57.353Z,974.88
2019-04-29T12:19:57.411Z,974.92
2019-04-29T12:20:57.453Z,974.96
2019-04-29T12:21:57.518Z,975.01
2019-04-29T12:22:57.555Z,975.03
2019-04-29T12:23:57.593Z,974.99
2019-04-29T12:24:57.640Z,974.98
2019-04-29T12:25:58.720Z,975.00
2019-04-29T12:26:57.730Z,974.98
2019-04-29T12:28:01.675Z,975.00
2019-04-29T12:28:57.838Z,974.95